sensor_id;sensor_type;location;lat;lon;timestamp;pressure;altitude;pressure_sealevel;temperature;humidity
11692;BME280;33659;42.672;23.354;2022-12-22T00:01:49;94562.88;;;4.04;61.20
11692;BME280;33659;42.672;23.354;2022-12-22T00:04:34;94563.31;;;3.92;61.16
11692;BME280;33659;42.672;23.354;2022-12-22T00:07:19;94559.34;;;3.81;62.30
11692;BME280;33659;42.672;23.354;2022-12-22T00:10:04;94556.88;;;3.71;62.65
11692;BME280;33659;42.672;23.354;2022-12-22T00:12:48;94559.81;;;3.64;62.38
11692;BME280;33659;42.672;23.354;2022-12-22T00:15:34;94555.28;;;3.56;63.55
11692;BME280;33659;42.672;23.354;2022-12-22T00:18:18;94563.72;;;3.43;63.75
11692;BME280;33659;42.672;23.354;2022-12-22T00:21:03;94561.22;;;3.33;64.27
11692;BME280;33659;42.672;23.354;2022-12-22T00:23:48;94561.81;;;3.30;64.30
11692;BME280;33659;42.672;23.354;2022-12-22T00:26:33;94562.06;;;3.28;63.92
11692;BME280;33659;42.672;23.354;2022-12-22T00:29:19;94562.72;;;3.39;64.18
11692;BME280;33659;42.672;23.354;2022-12-22T00:32:04;94561.84;;;3.48;63.33
11692;BME280;33659;42.672;23.354;2022-12-22T00:34:48;94563.78;;;3.57;63.52
11692;BME280;33659;42.672;23.354;2022-12-22T00:37:34;94564.97;;;3.64;63.11
11692;BME280;33659;42.672;23.354;2022-12-22T00:40:21;94565.22;;;3.68;63.00
11692;BME280;33659;42.672;23.354;2022-12-22T00:43:05;94562.81;;;3.71;62.99
11692;BME280;33659;42.672;23.354;2022-12-22T00:45:50;94558.13;;;3.73;62.07
11692;BME280;33659;42.672;23.354;2022-12-22T00:48:36;94556.59;;;3.72;62.13
11692;BME280;33659;42.672;23.354;2022-12-22T00:51:21;94548.50;;;3.60;62.79
11692;BME280;33659;42.672;23.354;2022-12-22T00:54:07;94550.19;;;3.51;63.45
11692;BME280;33659;42.672;23.354;2022-12-22T00:56:53;94548.69;;;3.45;63.27
11692;BME280;33659;42.672;23.354;2022-12-22T00:59:37;94541.53;;;3.42;62.92
11692;BME280;33659;42.672;23.354;2022-12-22T01:02:22;94547.72;;;3.41;63.30
11692;BME280;33659;42.672;23.354;2022-12-22T01:05:06;94540.88;;;3.31;64.24
11692;BME280;33659;42.672;23.354;2022-12-22T01:07:50;94543.06;;;3.19;65.24
11692;BME280;33659;42.672;23.354;2022-12-22T01:10:34;94537.53;;;3.07;65.31
11692;BME280;33659;42.672;23.354;2022-12-22T01:13:19;94529.97;;;2.91;65.48
11692;BME280;33659;42.672;23.354;2022-12-22T01:16:04;94533.38;;;2.87;65.75
11692;BME280;33659;42.672;23.354;2022-12-22T01:18:48;94518.19;;;2.85;65.16
11692;BME280;33659;42.672;23.354;2022-12-22T01:21:32;94519.47;;;2.83;65.35
11692;BME280;33659;42.672;23.354;2022-12-22T01:24:17;94520.53;;;2.82;64.88
11692;BME280;33659;42.672;23.354;2022-12-22T01:27:02;94516.41;;;2.81;65.40
11692;BME280;33659;42.672;23.354;2022-12-22T01:29:48;94515.38;;;2.82;64.90
11692;BME280;33659;42.672;23.354;2022-12-22T01:32:32;94519.72;;;2.86;65.32
11692;BME280;33659;42.672;23.354;2022-12-22T01:35:18;94506.00;;;2.91;64.86
11692;BME280;33659;42.672;23.354;2022-12-22T01:38:03;94508.50;;;2.96;64.09
11692;BME280;33659;42.672;23.354;2022-12-22T01:40:47;94515.09;;;3.07;64.10
11692;BME280;33659;42.672;23.354;2022-12-22T01:43:32;94514.81;;;3.09;64.06
11692;BME280;33659;42.672;23.354;2022-12-22T01:46:23;94514.97;;;3.17;63.93
11692;BME280;33659;42.672;23.354;2022-12-22T01:49:11;94498.50;;;3.13;63.57
11692;BME280;33659;42.672;23.354;2022-12-22T01:51:56;94522.03;;;3.31;63.89
11692;BME280;33659;42.672;23.354;2022-12-22T01:54:40;94518.63;;;3.35;63.30
11692;BME280;33659;42.672;23.354;2022-12-22T01:57:25;94515.72;;;3.42;63.38
11692;BME280;33659;42.672;23.354;2022-12-22T02:00:11;94522.88;;;3.45;63.58
11692;BME280;33659;42.672;23.354;2022-12-22T02:02:56;94517.44;;;3.46;63.52
11692;BME280;33659;42.672;23.354;2022-12-22T02:05:50;94517.03;;;3.39;63.35
11692;BME280;33659;42.672;23.354;2022-12-22T02:08:41;94512.34;;;3.22;64.16
11692;BME280;33659;42.672;23.354;2022-12-22T02:11:35;94515.13;;;3.02;64.84
11692;BME280;33659;42.672;23.354;2022-12-22T02:14:29;94510.88;;;2.92;64.86
11692;BME280;33659;42.672;23.354;2022-12-22T02:17:22;94513.50;;;2.87;65.26
11692;BME280;33659;42.672;23.354;2022-12-22T02:20:30;94515.88;;;2.84;64.54
11692;BME280;33659;42.672;23.354;2022-12-22T02:23:31;94521.38;;;2.77;64.56
11692;BME280;33659;42.672;23.354;2022-12-22T02:26:24;94514.72;;;2.71;64.24
11692;BME280;33659;42.672;23.354;2022-12-22T02:29:11;94512.47;;;2.64;64.70
11692;BME280;33659;42.672;23.354;2022-12-22T02:31:56;94502.69;;;2.61;64.47
11692;BME280;33659;42.672;23.354;2022-12-22T02:34:40;94519.59;;;2.72;64.08
11692;BME280;33659;42.672;23.354;2022-12-22T02:37:28;94516.97;;;2.78;64.31
11692;BME280;33659;42.672;23.354;2022-12-22T02:40:17;94508.13;;;2.84;63.22
11692;BME280;33659;42.672;23.354;2022-12-22T02:43:10;94511.69;;;2.88;63.34
11692;BME280;33659;42.672;23.354;2022-12-22T02:46:02;94496.34;;;2.78;63.88
11692;BME280;33659;42.672;23.354;2022-12-22T02:48:55;94507.09;;;2.85;64.40
11692;BME280;33659;42.672;23.354;2022-12-22T02:51:44;94510.22;;;2.82;63.83
11692;BME280;33659;42.672;23.354;2022-12-22T02:54:30;94509.88;;;2.88;63.77
11692;BME280;33659;42.672;23.354;2022-12-22T02:57:16;94508.00;;;2.94;63.64
11692;BME280;33659;42.672;23.354;2022-12-22T03:00:03;94507.97;;;2.99;62.90
11692;BME280;33659;42.672;23.354;2022-12-22T03:02:47;94506.38;;;3.03;63.45
11692;BME280;33659;42.672;23.354;2022-12-22T03:05:31;94507.06;;;3.09;63.06
11692;BME280;33659;42.672;23.354;2022-12-22T03:08:15;94504.75;;;3.07;63.16
11692;BME280;33659;42.672;23.354;2022-12-22T03:10:59;94503.81;;;3.03;63.26
11692;BME280;33659;42.672;23.354;2022-12-22T03:13:43;94501.69;;;3.05;63.84
11692;BME280;33659;42.672;23.354;2022-12-22T03:16:28;94504.34;;;3.00;63.53
11692;BME280;33659;42.672;23.354;2022-12-22T03:19:13;94513.72;;;2.91;63.63
11692;BME280;33659;42.672;23.354;2022-12-22T03:21:57;94506.59;;;2.83;64.10
11692;BME280;33659;42.672;23.354;2022-12-22T03:24:40;94508.97;;;2.79;64.20
11692;BME280;33659;42.672;23.354;2022-12-22T03:27:24;94504.59;;;2.75;64.19
11692;BME280;33659;42.672;23.354;2022-12-22T03:29:51;94506.66;;;2.78;64.18
11692;BME280;33659;42.672;23.354;2022-12-22T03:32:19;94504.56;;;2.80;64.27
11692;BME280;33659;42.672;23.354;2022-12-22T03:34:46;94502.69;;;2.85;63.99
11692;BME280;33659;42.672;23.354;2022-12-22T03:37:12;94503.50;;;2.81;63.88
11692;BME280;33659;42.672;23.354;2022-12-22T03:39:39;94498.31;;;2.86;63.58
11692;BME280;33659;42.672;23.354;2022-12-22T03:42:05;94501.88;;;2.90;64.06
11692;BME280;33659;42.672;23.354;2022-12-22T03:44:49;94503.34;;;2.96;63.64
11692;BME280;33659;42.672;23.354;2022-12-22T03:47:35;94509.97;;;3.02;63.29
11692;BME280;33659;42.672;23.354;2022-12-22T03:50:01;94504.75;;;3.07;63.58
11692;BME280;33659;42.672;23.354;2022-12-22T03:52:28;94506.88;;;3.05;63.80
11692;BME280;33659;42.672;23.354;2022-12-22T03:54:55;94513.84;;;3.05;63.36
11692;BME280;33659;42.672;23.354;2022-12-22T03:57:21;94507.84;;;3.09;63.87
11692;BME280;33659;42.672;23.354;2022-12-22T03:59:48;94511.22;;;3.10;63.65
11692;BME280;33659;42.672;23.354;2022-12-22T04:02:15;94506.31;;;3.08;63.13
11692;BME280;33659;42.672;23.354;2022-12-22T04:04:43;94505.75;;;3.11;63.28
11692;BME280;33659;42.672;23.354;2022-12-22T04:07:09;94508.06;;;3.13;62.85
11692;BME280;33659;42.672;23.354;2022-12-22T04:09:36;94501.69;;;3.05;62.95
11692;BME280;33659;42.672;23.354;2022-12-22T04:12:22;94501.75;;;3.00;63.42
11692;BME280;33659;42.672;23.354;2022-12-22T04:15:07;94502.56;;;2.95;62.90
11692;BME280;33659;42.672;23.354;2022-12-22T04:17:34;94503.66;;;2.89;63.20
11692;BME280;33659;42.672;23.354;2022-12-22T04:20:02;94501.59;;;2.91;63.24
11692;BME280;33659;42.672;23.354;2022-12-22T04:22:29;94501.56;;;2.96;63.04
11692;BME280;33659;42.672;23.354;2022-12-22T04:24:56;94501.47;;;3.02;63.12
11692;BME280;33659;42.672;23.354;2022-12-22T04:27:22;94491.38;;;3.05;62.88
11692;BME280;33659;42.672;23.354;2022-12-22T04:29:49;94491.16;;;3.02;63.14
11692;BME280;33659;42.672;23.354;2022-12-22T04:32:16;94500.16;;;3.04;63.08
11692;BME280;33659;42.672;23.354;2022-12-22T04:34:43;94495.50;;;3.06;62.81
11692;BME280;33659;42.672;23.354;2022-12-22T04:37:11;94492.91;;;3.06;63.12
11692;BME280;33659;42.672;23.354;2022-12-22T04:39:37;94489.28;;;3.07;62.99
11692;BME280;33659;42.672;23.354;2022-12-22T04:42:04;94500.59;;;3.11;63.41
11692;BME280;33659;42.672;23.354;2022-12-22T04:44:31;94499.22;;;3.19;62.85
11692;BME280;33659;42.672;23.354;2022-12-22T04:46:57;94501.78;;;3.19;62.53
11692;BME280;33659;42.672;23.354;2022-12-22T04:49:24;94503.59;;;3.18;62.38
11692;BME280;33659;42.672;23.354;2022-12-22T04:51:51;94499.50;;;3.17;62.78
11692;BME280;33659;42.672;23.354;2022-12-22T04:54:19;94503.13;;;3.16;62.51
11692;BME280;33659;42.672;23.354;2022-12-22T04:56:45;94502.91;;;3.13;62.62
11692;BME280;33659;42.672;23.354;2022-12-22T04:59:12;94503.66;;;3.13;62.85
11692;BME280;33659;42.672;23.354;2022-12-22T05:01:39;94493.16;;;3.10;63.06
11692;BME280;33659;42.672;23.354;2022-12-22T05:04:05;94492.50;;;2.99;63.01
11692;BME280;33659;42.672;23.354;2022-12-22T05:06:32;94497.22;;;2.92;63.00
11692;BME280;33659;42.672;23.354;2022-12-22T05:08:59;94497.22;;;2.92;63.25
11692;BME280;33659;42.672;23.354;2022-12-22T05:11:27;94499.34;;;2.85;62.92
11692;BME280;33659;42.672;23.354;2022-12-22T05:13:53;94500.06;;;2.66;63.64
11692;BME280;33659;42.672;23.354;2022-12-22T05:16:20;94496.84;;;2.51;64.18
11692;BME280;33659;42.672;23.354;2022-12-22T05:18:47;94504.41;;;2.42;64.57
11692;BME280;33659;42.672;23.354;2022-12-22T05:21:15;94504.22;;;2.38;64.51
11692;BME280;33659;42.672;23.354;2022-12-22T05:23:42;94506.06;;;2.33;64.37
11692;BME280;33659;42.672;23.354;2022-12-22T05:26:09;94511.22;;;2.33;64.77
11692;BME280;33659;42.672;23.354;2022-12-22T05:28:38;94499.84;;;2.34;64.11
11692;BME280;33659;42.672;23.354;2022-12-22T05:31:06;94510.56;;;2.46;64.13
11692;BME280;33659;42.672;23.354;2022-12-22T05:33:33;94514.97;;;2.46;63.81
11692;BME280;33659;42.672;23.354;2022-12-22T05:36:00;94516.50;;;2.47;63.64
11692;BME280;33659;42.672;23.354;2022-12-22T05:38:27;94513.63;;;2.48;63.86
11692;BME280;33659;42.672;23.354;2022-12-22T05:40:53;94507.41;;;2.54;63.52
11692;BME280;33659;42.672;23.354;2022-12-22T05:43:20;94504.78;;;2.59;63.40
11692;BME280;33659;42.672;23.354;2022-12-22T05:45:48;94506.31;;;2.60;63.30
11692;BME280;33659;42.672;23.354;2022-12-22T05:48:15;94507.63;;;2.58;63.43
11692;BME280;33659;42.672;23.354;2022-12-22T05:50:41;94504.00;;;2.59;63.32
11692;BME280;33659;42.672;23.354;2022-12-22T05:53:08;94500.81;;;2.67;63.13
11692;BME280;33659;42.672;23.354;2022-12-22T05:55:35;94504.16;;;2.67;63.54
11692;BME280;33659;42.672;23.354;2022-12-22T05:58:01;94511.59;;;2.74;62.54
11692;BME280;33659;42.672;23.354;2022-12-22T06:00:29;94512.59;;;2.78;63.15
11692;BME280;33659;42.672;23.354;2022-12-22T06:02:58;94508.63;;;2.86;63.18
11692;BME280;33659;42.672;23.354;2022-12-22T06:05:24;94494.44;;;2.83;62.81
11692;BME280;33659;42.672;23.354;2022-12-22T06:07:51;94508.50;;;2.96;62.55
11692;BME280;33659;42.672;23.354;2022-12-22T06:10:19;94506.63;;;3.02;62.24
11692;BME280;33659;42.672;23.354;2022-12-22T06:12:46;94507.34;;;3.07;62.05
11692;BME280;33659;42.672;23.354;2022-12-22T06:15:13;94510.75;;;3.03;61.99
11692;BME280;33659;42.672;23.354;2022-12-22T06:17:40;94511.25;;;3.05;61.93
11692;BME280;33659;42.672;23.354;2022-12-22T06:20:09;94509.94;;;3.07;61.77
11692;BME280;33659;42.672;23.354;2022-12-22T06:22:36;94508.81;;;3.13;61.94
11692;BME280;33659;42.672;23.354;2022-12-22T06:25:03;94503.13;;;3.16;61.93
11692;BME280;33659;42.672;23.354;2022-12-22T06:27:29;94512.34;;;3.22;61.76
11692;BME280;33659;42.672;23.354;2022-12-22T06:29:56;94511.78;;;3.25;61.67
11692;BME280;33659;42.672;23.354;2022-12-22T06:32:23;94517.38;;;3.33;61.59
11692;BME280;33659;42.672;23.354;2022-12-22T06:34:49;94526.03;;;3.42;61.57
11692;BME280;33659;42.672;23.354;2022-12-22T06:37:17;94528.53;;;3.47;60.85
11692;BME280;33659;42.672;23.354;2022-12-22T06:39:44;94526.88;;;3.56;61.25
11692;BME280;33659;42.672;23.354;2022-12-22T06:42:11;94530.38;;;3.65;60.48
11692;BME280;33659;42.672;23.354;2022-12-22T06:44:55;94521.22;;;3.73;60.34
11692;BME280;33659;42.672;23.354;2022-12-22T06:47:22;94529.13;;;3.82;60.21
11692;BME280;33659;42.672;23.354;2022-12-22T06:49:48;94519.75;;;3.86;60.17
11692;BME280;33659;42.672;23.354;2022-12-22T06:52:15;94523.88;;;3.87;59.76
11692;BME280;33659;42.672;23.354;2022-12-22T06:54:43;94534.47;;;3.85;60.12
11692;BME280;33659;42.672;23.354;2022-12-22T06:57:10;94529.59;;;3.84;59.67
11692;BME280;33659;42.672;23.354;2022-12-22T06:59:37;94540.22;;;3.82;59.72
11692;BME280;33659;42.672;23.354;2022-12-22T07:02:03;94530.19;;;3.80;59.51
11692;BME280;33659;42.672;23.354;2022-12-22T07:04:30;94530.72;;;3.77;59.77
11692;BME280;33659;42.672;23.354;2022-12-22T07:06:57;94528.97;;;3.73;59.75
11692;BME280;33659;42.672;23.354;2022-12-22T07:09:23;94531.91;;;3.66;59.72
11692;BME280;33659;42.672;23.354;2022-12-22T07:11:51;94527.84;;;3.60;60.11
11692;BME280;33659;42.672;23.354;2022-12-22T07:14:18;94537.81;;;3.67;60.39
11692;BME280;33659;42.672;23.354;2022-12-22T07:16:45;94537.00;;;3.71;59.96
11692;BME280;33659;42.672;23.354;2022-12-22T07:19:12;94535.81;;;3.83;60.04
11692;BME280;33659;42.672;23.354;2022-12-22T07:21:39;94538.75;;;3.95;59.89
11692;BME280;33659;42.672;23.354;2022-12-22T07:24:06;94528.81;;;4.02;59.66
11692;BME280;33659;42.672;23.354;2022-12-22T07:26:33;94532.88;;;4.08;59.72
11692;BME280;33659;42.672;23.354;2022-12-22T07:29:01;94536.50;;;4.07;60.18
11692;BME280;33659;42.672;23.354;2022-12-22T07:31:27;94529.31;;;4.04;57.65
11692;BME280;33659;42.672;23.354;2022-12-22T07:33:54;94532.94;;;3.84;57.73
11692;BME280;33659;42.672;23.354;2022-12-22T07:36:21;94525.19;;;3.65;58.44
11692;BME280;33659;42.672;23.354;2022-12-22T07:38:49;94524.72;;;3.44;58.85
11692;BME280;33659;42.672;23.354;2022-12-22T07:41:17;94531.31;;;3.32;59.86
11692;BME280;33659;42.672;23.354;2022-12-22T07:44:03;94534.50;;;3.23;60.12
11692;BME280;33659;42.672;23.354;2022-12-22T07:46:32;94533.47;;;3.24;60.04
11692;BME280;33659;42.672;23.354;2022-12-22T07:48:59;94520.28;;;3.26;60.40
11692;BME280;33659;42.672;23.354;2022-12-22T07:51:44;94535.75;;;3.50;60.27
11692;BME280;33659;42.672;23.354;2022-12-22T07:54:12;94535.47;;;3.70;60.23
11692;BME280;33659;42.672;23.354;2022-12-22T07:56:39;94528.69;;;3.93;60.31
11692;BME280;33659;42.672;23.354;2022-12-22T07:59:07;94528.88;;;4.16;59.33
11692;BME280;33659;42.672;23.354;2022-12-22T08:01:34;94533.25;;;4.34;58.37
11692;BME280;33659;42.672;23.354;2022-12-22T08:04:00;94536.25;;;4.55;58.11
11692;BME280;33659;42.672;23.354;2022-12-22T08:06:27;94528.88;;;4.62;57.29
11692;BME280;33659;42.672;23.354;2022-12-22T08:08:54;94526.59;;;4.60;57.33
11692;BME280;33659;42.672;23.354;2022-12-22T08:11:21;94519.81;;;4.65;57.30
11692;BME280;33659;42.672;23.354;2022-12-22T08:13:48;94528.88;;;4.62;57.30
11692;BME280;33659;42.672;23.354;2022-12-22T08:16:16;94524.03;;;4.74;57.89
11692;BME280;33659;42.672;23.354;2022-12-22T08:18:44;94518.38;;;4.86;57.37
11692;BME280;33659;42.672;23.354;2022-12-22T08:21:11;94528.28;;;4.98;57.19
11692;BME280;33659;42.672;23.354;2022-12-22T08:23:38;94519.28;;;5.09;57.25
11692;BME280;33659;42.672;23.354;2022-12-22T08:26:08;94522.22;;;5.30;56.36
11692;BME280;33659;42.672;23.354;2022-12-22T08:28:40;94521.13;;;5.44;55.96
11692;BME280;33659;42.672;23.354;2022-12-22T08:31:09;94515.94;;;5.58;55.19
11692;BME280;33659;42.672;23.354;2022-12-22T08:33:37;94524.38;;;5.64;55.12
11692;BME280;33659;42.672;23.354;2022-12-22T08:36:05;94522.44;;;5.69;55.47
11692;BME280;33659;42.672;23.354;2022-12-22T08:38:33;94522.78;;;5.77;55.70
11692;BME280;33659;42.672;23.354;2022-12-22T08:41:00;94486.38;;;5.59;55.35
11692;BME280;33659;42.672;23.354;2022-12-22T08:43:28;94524.09;;;6.02;55.19
11692;BME280;33659;42.672;23.354;2022-12-22T08:45:56;94514.63;;;6.19;54.94
11692;BME280;33659;42.672;23.354;2022-12-22T08:48:23;94512.41;;;6.35;54.27
11692;BME280;33659;42.672;23.354;2022-12-22T08:50:51;94508.88;;;6.54;53.96
11692;BME280;33659;42.672;23.354;2022-12-22T08:53:17;94517.28;;;6.59;53.57
11692;BME280;33659;42.672;23.354;2022-12-22T08:55:49;94503.06;;;6.57;53.71
11692;BME280;33659;42.672;23.354;2022-12-22T08:58:16;94503.78;;;6.79;53.45
11692;BME280;33659;42.672;23.354;2022-12-22T09:00:43;94496.84;;;6.97;52.67
11692;BME280;33659;42.672;23.354;2022-12-22T09:03:10;94493.38;;;7.19;52.07
11692;BME280;33659;42.672;23.354;2022-12-22T09:05:36;94490.06;;;7.45;51.44
11692;BME280;33659;42.672;23.354;2022-12-22T09:08:05;94491.00;;;7.57;50.83
11692;BME280;33659;42.672;23.354;2022-12-22T09:10:32;94489.78;;;7.64;50.82
11692;BME280;33659;42.672;23.354;2022-12-22T09:12:58;94486.16;;;7.73;50.30
11692;BME280;33659;42.672;23.354;2022-12-22T09:15:25;94476.66;;;7.60;50.50
11692;BME280;33659;42.672;23.354;2022-12-22T09:17:52;94475.13;;;7.42;51.17
11692;BME280;33659;42.672;23.354;2022-12-22T09:20:19;94472.38;;;7.64;51.05
11692;BME280;33659;42.672;23.354;2022-12-22T09:22:45;94469.75;;;7.90;50.18
11692;BME280;33659;42.672;23.354;2022-12-22T09:25:13;94466.25;;;8.12;49.70
11692;BME280;33659;42.672;23.354;2022-12-22T09:27:42;94466.19;;;8.47;48.67
11692;BME280;33659;42.672;23.354;2022-12-22T09:30:10;94453.72;;;8.70;48.30
11692;BME280;33659;42.672;23.354;2022-12-22T09:32:36;94467.94;;;9.10;47.33
11692;BME280;33659;42.672;23.354;2022-12-22T09:35:04;94463.78;;;9.39;46.47
11692;BME280;33659;42.672;23.354;2022-12-22T09:37:30;94465.84;;;9.54;45.74
11692;BME280;33659;42.672;23.354;2022-12-22T09:39:57;94469.91;;;9.64;45.33
11692;BME280;33659;42.672;23.354;2022-12-22T09:42:25;94459.34;;;9.81;45.39
11692;BME280;33659;42.672;23.354;2022-12-22T09:44:52;94460.91;;;9.94;45.35
11692;BME280;33659;42.672;23.354;2022-12-22T09:47:22;94460.44;;;10.13;44.93
11692;BME280;33659;42.672;23.354;2022-12-22T09:49:50;94455.97;;;10.35;44.41
11692;BME280;33659;42.672;23.354;2022-12-22T09:52:23;94452.44;;;10.64;45.59
11692;BME280;33659;42.672;23.354;2022-12-22T09:54:54;94447.34;;;10.92;44.13
11692;BME280;33659;42.672;23.354;2022-12-22T09:57:23;94444.50;;;11.09;42.69
11692;BME280;33659;42.672;23.354;2022-12-22T09:59:53;94442.53;;;11.30;41.74
11692;BME280;33659;42.672;23.354;2022-12-22T10:02:24;94443.25;;;11.55;41.33
11692;BME280;33659;42.672;23.354;2022-12-22T10:05:02;94436.88;;;11.81;40.91
11692;BME280;33659;42.672;23.354;2022-12-22T10:07:33;94425.28;;;11.94;39.95
11692;BME280;33659;42.672;23.354;2022-12-22T10:10:05;94427.38;;;12.04;39.94
11692;BME280;33659;42.672;23.354;2022-12-22T10:12:31;94412.00;;;11.87;39.73
11692;BME280;33659;42.672;23.354;2022-12-22T10:15:00;94402.78;;;11.65;40.50
11692;BME280;33659;42.672;23.354;2022-12-22T10:17:30;94396.41;;;11.50;40.85
11692;BME280;33659;42.672;23.354;2022-12-22T10:20:18;94401.38;;;11.68;40.47
11692;BME280;33659;42.672;23.354;2022-12-22T10:22:47;94397.50;;;11.77;40.81
11692;BME280;33659;42.672;23.354;2022-12-22T10:25:27;94387.81;;;12.06;39.92
11692;BME280;33659;42.672;23.354;2022-12-22T10:27:56;94391.44;;;12.17;39.65
11692;BME280;33659;42.672;23.354;2022-12-22T10:30:26;94389.03;;;12.24;39.57
11692;BME280;33659;42.672;23.354;2022-12-22T10:33:04;94389.78;;;12.40;39.42
11692;BME280;33659;42.672;23.354;2022-12-22T10:35:45;94389.13;;;12.59;38.84
11692;BME280;33659;42.672;23.354;2022-12-22T10:38:21;94386.66;;;12.82;38.62
11692;BME280;33659;42.672;23.354;2022-12-22T10:40:52;94382.66;;;13.04;37.76
11692;BME280;33659;42.672;23.354;2022-12-22T10:43:21;94382.28;;;13.06;37.65
11692;BME280;33659;42.672;23.354;2022-12-22T10:45:51;94367.06;;;13.27;37.37
11692;BME280;33659;42.672;23.354;2022-12-22T10:48:27;94368.28;;;12.98;37.09
11692;BME280;33659;42.672;23.354;2022-12-22T10:50:55;94365.16;;;12.92;37.20
11692;BME280;33659;42.672;23.354;2022-12-22T10:53:38;94364.44;;;12.76;37.79
11692;BME280;33659;42.672;23.354;2022-12-22T10:56:06;94366.38;;;12.79;37.50
11692;BME280;33659;42.672;23.354;2022-12-22T10:58:47;94362.78;;;12.87;37.22
11692;BME280;33659;42.672;23.354;2022-12-22T11:01:22;94361.75;;;13.08;37.26
11692;BME280;33659;42.672;23.354;2022-12-22T11:03:49;94355.59;;;13.35;37.03
11692;BME280;33659;42.672;23.354;2022-12-22T11:06:16;94350.09;;;13.79;36.58
11692;BME280;33659;42.672;23.354;2022-12-22T11:08:43;94348.06;;;14.15;35.96
11692;BME280;33659;42.672;23.354;2022-12-22T11:11:15;94343.13;;;14.55;36.51
11692;BME280;33659;42.672;23.354;2022-12-22T11:13:51;94343.28;;;14.93;35.56
11692;BME280;33659;42.672;23.354;2022-12-22T11:16:26;94342.56;;;15.52;36.65
11692;BME280;33659;42.672;23.354;2022-12-22T11:19:09;94331.19;;;16.15;33.99
11692;BME280;33659;42.672;23.354;2022-12-22T11:21:42;94335.81;;;16.73;32.31
11692;BME280;33659;42.672;23.354;2022-12-22T11:24:22;94329.97;;;17.01;32.04
11692;BME280;33659;42.672;23.354;2022-12-22T11:27:00;94322.97;;;17.38;31.00
11692;BME280;33659;42.672;23.354;2022-12-22T11:30:03;94322.75;;;17.71;30.65
11692;BME280;33659;42.672;23.354;2022-12-22T11:32:56;94323.22;;;18.16;29.83
11692;BME280;33659;42.672;23.354;2022-12-22T11:35:36;94323.25;;;18.70;29.89
11692;BME280;33659;42.672;23.354;2022-12-22T11:38:12;94319.69;;;19.40;28.32
11692;BME280;33659;42.672;23.354;2022-12-22T11:40:43;94311.06;;;20.06;27.22
11692;BME280;33659;42.672;23.354;2022-12-22T11:43:22;94317.16;;;21.38;26.23
11692;BME280;33659;42.672;23.354;2022-12-22T11:46:00;94309.09;;;22.80;24.95
11692;BME280;33659;42.672;23.354;2022-12-22T11:48:49;94308.81;;;24.13;23.42
11692;BME280;33659;42.672;23.354;2022-12-22T11:51:30;94306.78;;;25.15;22.18
11692;BME280;33659;42.672;23.354;2022-12-22T11:57:24;94304.09;;;26.50;20.45
11692;BME280;33659;42.672;23.354;2022-12-22T12:00:01;94306.78;;;27.32;19.87
11692;BME280;33659;42.672;23.354;2022-12-22T12:05:39;94290.75;;;28.93;18.53
11692;BME280;33659;42.672;23.354;2022-12-22T12:08:16;94267.91;;;29.06;18.50
11692;BME280;33659;42.672;23.354;2022-12-22T12:10:48;94293.56;;;29.44;17.82
11692;BME280;33659;42.672;23.354;2022-12-22T12:13:24;94288.16;;;29.72;17.84
11692;BME280;33659;42.672;23.354;2022-12-22T12:16:02;94285.09;;;29.88;17.55
11692;BME280;33659;42.672;23.354;2022-12-22T12:18:59;94278.59;;;30.13;17.12
11692;BME280;33659;42.672;23.354;2022-12-22T12:21:29;94273.06;;;30.16;17.45
11692;BME280;33659;42.672;23.354;2022-12-22T12:24:13;94275.84;;;29.89;17.27
11692;BME280;33659;42.672;23.354;2022-12-22T12:26:49;94279.97;;;29.99;17.68
11692;BME280;33659;42.672;23.354;2022-12-22T12:29:19;94267.91;;;30.28;17.29
11692;BME280;33659;42.672;23.354;2022-12-22T12:31:51;94279.34;;;30.46;17.37
11692;BME280;33659;42.672;23.354;2022-12-22T12:34:20;94273.19;;;30.46;17.45
11692;BME280;33659;42.672;23.354;2022-12-22T12:36:52;94271.53;;;30.48;17.45
11692;BME280;33659;42.672;23.354;2022-12-22T12:39:30;94268.66;;;30.52;16.85
11692;BME280;33659;42.672;23.354;2022-12-22T12:42:05;94271.28;;;30.37;17.16
11692;BME280;33659;42.672;23.354;2022-12-22T12:44:38;94274.41;;;30.12;17.10
11692;BME280;33659;42.672;23.354;2022-12-22T12:47:19;94275.03;;;29.46;17.06
11692;BME280;33659;42.672;23.354;2022-12-22T12:50:09;94264.28;;;28.82;17.84
11692;BME280;33659;42.672;23.354;2022-12-22T12:53:14;94265.06;;;27.62;18.50
11692;BME280;33659;42.672;23.354;2022-12-22T12:56:05;94273.19;;;26.70;19.51
11692;BME280;33659;42.672;23.354;2022-12-22T12:58:48;94270.50;;;25.98;19.59
11692;BME280;33659;42.672;23.354;2022-12-22T13:08:06;94266.59;;;21.10;25.00
11692;BME280;33659;42.672;23.354;2022-12-22T13:10:37;94259.03;;;20.26;26.07
11692;BME280;33659;42.672;23.354;2022-12-22T13:13:04;94260.44;;;19.86;26.59
11692;BME280;33659;42.672;23.354;2022-12-22T13:15:32;94264.78;;;19.52;26.92
11692;BME280;33659;42.672;23.354;2022-12-22T13:18:00;94254.78;;;18.93;27.47
11692;BME280;33659;42.672;23.354;2022-12-22T13:20:30;94249.97;;;18.06;28.23
11692;BME280;33659;42.672;23.354;2022-12-22T13:22:59;94259.97;;;17.29;29.41
11692;BME280;33659;42.672;23.354;2022-12-22T13:25:34;94253.19;;;16.55;30.43
11692;BME280;33659;42.672;23.354;2022-12-22T13:28:10;94260.13;;;15.82;31.61
11692;BME280;33659;42.672;23.354;2022-12-22T13:30:44;94261.38;;;15.21;32.37
11692;BME280;33659;42.672;23.354;2022-12-22T13:33:14;94264.53;;;14.73;33.38
11692;BME280;33659;42.672;23.354;2022-12-22T13:35:44;94260.81;;;14.25;34.10
11692;BME280;33659;42.672;23.354;2022-12-22T13:38:26;94262.06;;;13.85;35.30
11692;BME280;33659;42.672;23.354;2022-12-22T13:40:53;94261.84;;;13.51;36.03
11692;BME280;33659;42.672;23.354;2022-12-22T13:43:22;94256.50;;;13.25;36.43
11692;BME280;33659;42.672;23.354;2022-12-22T13:45:51;94260.47;;;12.99;36.97
11692;BME280;33659;42.672;23.354;2022-12-22T13:48:20;94257.41;;;12.78;37.61